Time;durP1;ratioP1;P1;durP2;ratioP2;P2;SDS_P1;SDS_P2;PMS_P1;PMS_P2;Temp;Humidity;BMP_temperature;BMP_pressure;BME280_temperature;BME280_humidity;BME280_pressure;Samples;Min_cycle;Max_cycle;Signal;HPM_P1;HPM_P2
2022/06/21 00:00:16;;;;;;;4.50;3.00;;;19.10;89.90;;;19.50;57.70;94608.88;5082190;28;20508;-55
2022/06/21 00:02:44;;;;;;;4.47;4.10;;;19.00;88.80;;;19.44;57.53;94604.38;5083740;28;20758;-55
2022/06/21 00:05:15;;;;;;;8.93;4.60;;;19.00;88.80;;;19.39;57.67;94599.63;5086554;28;20937;-55
2022/06/21 00:07:42;;;;;;;13.97;4.97;;;19.00;89.30;;;19.33;58.06;94606.59;5083459;28;20512;-55
2022/06/21 00:10:15;;;;;;;21.10;4.37;;;18.90;89.30;;;19.27;58.54;94607.41;5088455;28;20477;-54
2022/06/21 00:12:42;;;;;;;8.97;4.43;;;18.90;90.20;;;19.22;58.92;94604.50;5084708;28;20508;-54
2022/06/21 00:15:10;;;;;;;9.97;3.77;;;18.80;90.30;;;19.18;58.82;94611.28;5083793;28;20470;-54
2022/06/21 00:17:38;;;;;;;5.00;4.10;;;18.80;90.40;;;19.14;58.69;94615.34;5080056;28;20450;-53
2022/06/21 00:20:07;;;;;;;6.97;3.90;;;18.70;90.40;;;19.15;59.17;94614.34;5085237;28;20505;-56
2022/06/21 00:22:34;;;;;;;7.00;3.87;;;18.70;90.90;;;19.13;59.09;94605.69;5084566;28;20447;-56
2022/06/21 00:25:02;;;;;;;5.47;4.13;;;18.70;91.10;;;19.12;59.59;94604.06;5082107;28;20462;-53
2022/06/21 00:27:31;;;;;;;8.23;4.47;;;18.70;91.00;;;19.11;59.72;94603.22;5081600;28;20546;-53
2022/06/21 00:29:58;;;;;;;10.60;4.50;;;18.70;91.40;;;19.09;59.54;94591.13;5087941;28;20493;-55
2022/06/21 00:32:25;;;;;;;7.40;4.10;;;18.70;91.50;;;19.11;59.64;94602.41;5084886;28;20454;-54
2022/06/21 00:34:53;;;;;;;6.13;3.80;;;18.70;91.60;;;19.11;59.69;94599.75;5077073;28;20470;-55
2022/06/21 00:37:22;;;;;;;3.70;3.30;;;18.70;91.80;;;19.11;59.95;94603.22;5086106;28;20458;-52
2022/06/21 00:39:51;;;;;;;6.97;3.77;;;18.60;91.80;;;19.10;59.97;94595.44;5085589;28;20481;-54
2022/06/21 00:42:22;;;;;;;6.83;4.10;;;18.70;91.70;;;19.08;59.79;94600.97;5084128;28;20503;-55
2022/06/21 00:45:05;;;;;;;8.07;4.20;;;18.70;91.90;;;19.07;60.68;94602.00;5083709;28;20462;-55
2022/06/21 00:47:35;;;;;;;6.03;4.20;;;18.60;91.90;;;19.05;60.33;94604.03;5084213;28;20452;-53
2022/06/21 00:50:04;;;;;;;4.30;3.90;;;18.60;92.20;;;19.03;60.12;94599.94;5076026;28;21022;-54
2022/06/21 00:52:38;;;;;;;18.20;4.40;;;18.60;92.40;;;19.01;60.47;94607.28;5077773;28;20453;-54
2022/06/21 00:55:10;;;;;;;9.00;3.87;;;18.60;92.40;;;19.01;60.42;94601.97;5081570;28;20774;-55
2022/06/21 00:57:42;;;;;;;7.23;3.77;;;18.60;92.40;;;18.99;61.04;94592.34;5085195;28;20976;-54
2022/06/21 01:00:28;;;;;;;3.70;3.40;;;18.50;92.60;;;18.98;61.17;94605.84;5076514;28;20494;-55
2022/06/21 01:02:56;;;;;;;6.63;2.93;;;18.50;92.60;;;18.96;60.68;94595.41;5078457;28;20439;-55
2022/06/21 01:05:23;;;;;;;19.87;4.50;;;18.50;92.40;;;18.95;59.74;94595.59;5078271;28;21039;-53
2022/06/21 01:07:52;;;;;;;19.53;4.70;;;18.50;92.20;;;18.90;60.26;94598.84;5076049;28;20952;-53
2022/06/21 01:10:19;;;;;;;13.37;4.13;;;18.50;92.30;;;18.88;60.36;94595.53;5085220;28;20482;-54
2022/06/21 01:12:48;;;;;;;4.67;3.70;;;18.40;92.10;;;18.80;59.93;94590.34;5081243;28;20931;-55
2022/06/21 01:15:18;;;;;;;7.10;3.57;;;18.40;92.00;;;18.77;60.37;94601.41;5078335;28;20897;-55
2022/06/21 01:17:48;;;;;;;3.73;3.43;;;18.40;92.20;;;18.74;60.37;94605.28;5074865;28;20835;-56
2022/06/21 01:20:19;;;;;;;3.70;3.20;;;18.30;92.30;;;18.71;60.72;94602.19;5082605;28;20824;-55
2022/06/21 01:22:50;;;;;;;6.50;3.90;;;18.30;92.40;;;18.69;60.55;94612.25;5076606;28;20448;-53
2022/06/21 01:25:30;;;;;;;11.07;3.60;;;18.30;92.60;;;18.68;61.26;94606.06;5077115;28;20481;-55
2022/06/21 01:27:58;;;;;;;5.33;3.10;;;18.30;93.00;;;18.67;60.64;94601.78;5077707;28;20442;-53
2022/06/21 01:30:27;;;;;;;11.73;3.60;;;18.20;92.70;;;18.66;60.39;94604.63;5079697;28;20475;-55
2022/06/21 01:32:57;;;;;;;5.13;3.80;;;18.20;92.80;;;18.64;60.50;94607.50;5082820;28;20450;-55
2022/06/21 01:35:29;;;;;;;12.30;3.87;;;18.20;92.80;;;18.62;60.34;94599.69;5067516;28;20476;-55
2022/06/21 01:37:56;;;;;;;3.87;3.57;;;18.20;92.80;;;18.60;61.32;94601.72;5085067;28;20450;-56
2022/06/21 01:40:25;;;;;;;4.43;4.00;;;18.20;93.00;;;18.59;60.23;94605.44;5078599;28;20856;-53
2022/06/21 01:42:54;;;;;;;3.63;3.33;;;18.20;92.70;;;18.55;60.72;94601.50;5079272;28;20557;-57
2022/06/21 01:45:25;;;;;;;4.50;4.07;;;18.10;92.70;;;18.53;60.65;94602.69;5080107;28;21009;-55
2022/06/21 01:47:57;;;;;;;4.20;3.90;;;18.10;92.90;;;18.50;60.78;94598.59;5086236;28;20492;-54
2022/06/21 01:50:25;;;;;;;5.63;3.67;;;18.10;93.00;;;18.49;60.68;94610.25;5083704;28;20469;-55
2022/06/21 01:52:54;;;;;;;3.83;3.53;;;18.10;92.90;;;18.48;60.55;94607.81;5082444;28;20450;-58
2022/06/21 01:55:24;;;;;;;4.17;3.77;;;18.10;92.90;;;18.46;60.35;94614.13;5082398;28;20928;-54
2022/06/21 01:57:51;;;;;;;4.00;3.60;;;18.00;92.90;;;18.45;60.80;94614.31;5083971;28;20973;-54
2022/06/21 02:00:19;;;;;;;4.27;3.97;;;18.00;93.10;;;18.44;60.74;94612.69;5083136;28;21097;-54
2022/06/21 02:02:49;;;;;;;3.90;3.70;;;18.00;93.00;;;18.44;61.24;94612.69;5079196;28;20456;-53
2022/06/21 02:05:19;;;;;;;3.53;3.33;;;18.00;93.30;;;18.44;61.14;94615.38;5084041;28;20572;-53
2022/06/21 02:07:50;;;;;;;3.93;3.63;;;18.00;93.40;;;18.43;61.55;94621.69;5076696;28;20982;-53
2022/06/21 02:10:22;;;;;;;4.30;3.97;;;18.00;93.50;;;18.43;61.14;94616.38;5085469;28;20480;-54
2022/06/21 02:12:51;;;;;;;8.37;3.97;;;18.00;93.40;;;18.43;61.42;94616.38;5080872;28;20503;-55
2022/06/21 02:15:34;;;;;;;3.90;3.70;;;18.00;93.20;;;18.43;60.90;94622.53;5084844;28;20493;-55
2022/06/21 02:18:03;;;;;;;12.17;4.27;;;18.00;93.30;;;18.42;60.82;94620.88;5073480;28;20449;-54
2022/06/21 02:20:35;;;;;;;5.03;3.63;;;18.00;93.30;;;18.41;60.54;94618.41;5080973;28;20485;-55
2022/06/21 02:23:03;;;;;;;6.43;3.60;;;18.00;93.10;;;18.41;60.48;94615.75;5079057;28;20450;-55
2022/06/21 02:25:30;;;;;;;8.53;3.87;;;18.00;92.90;;;18.38;60.71;94602.81;5076249;28;20474;-52
2022/06/21 02:28:06;;;;;;;13.20;4.20;;;17.90;93.20;;;18.37;60.87;94612.66;5083153;28;20574;-52
2022/06/21 02:30:36;;;;;;;5.70;4.10;;;17.90;92.80;;;18.35;61.06;94605.88;5084183;28;20474;-55
2022/06/21 02:33:06;;;;;;;6.80;4.27;;;17.90;93.20;;;18.33;60.91;94605.25;5076894;28;20450;-58
2022/06/21 02:35:37;;;;;;;4.77;3.83;;;17.90;92.90;;;18.32;60.82;94612.41;5081731;28;20479;-54
2022/06/21 02:38:06;;;;;;;3.90;3.60;;;17.90;93.00;;;18.31;60.84;94601.94;5084554;28;20442;-56
2022/06/21 02:40:35;;;;;;;4.50;3.73;;;17.90;93.00;;;18.31;60.61;94599.28;5083657;28;20863;-55
2022/06/21 02:43:12;;;;;;;4.23;3.63;;;17.90;92.80;;;18.31;60.63;94604.63;5077778;28;20450;-56
2022/06/21 02:45:47;;;;;;;3.97;3.67;;;17.90;92.80;;;18.30;60.40;94597.66;5083068;28;20470;-54
2022/06/21 02:48:19;;;;;;;3.80;3.57;;;17.90;92.80;;;18.27;61.06;94594.34;5071619;28;20450;-55
2022/06/21 02:50:49;;;;;;;5.60;3.13;;;17.80;93.00;;;18.24;60.84;94588.59;5086745;28;20466;-54
2022/06/21 02:53:20;;;;;;;4.33;3.67;;;17.80;92.90;;;18.22;61.09;94596.78;5084871;28;20457;-53
2022/06/21 02:55:54;;;;;;;5.90;3.80;;;17.80;93.20;;;18.19;61.08;94599.84;5090215;28;20470;-53
2022/06/21 02:58:26;;;;;;;4.20;3.83;;;17.80;93.40;;;18.17;60.75;94595.72;5085684;28;20460;-56
2022/06/21 03:00:53;;;;;;;4.20;3.57;;;17.80;93.30;;;18.14;61.27;94593.44;5086438;28;20504;-54
2022/06/21 03:03:24;;;;;;;4.73;4.30;;;17.70;93.40;;;18.12;61.16;94595.47;5084807;28;20442;-53
2022/06/21 03:05:56;;;;;;;5.77;3.53;;;17.70;93.40;;;18.10;61.40;94593.00;5086124;28;20480;-53
2022/06/21 03:08:23;;;;;;;6.43;3.60;;;17.70;93.50;;;18.09;60.89;94594.84;5087014;28;20964;-54
2022/06/21 03:10:50;;;;;;;7.83;3.70;;;17.60;93.40;;;18.08;61.64;94593.19;5086487;28;20473;-54
2022/06/21 03:13:20;;;;;;;6.20;3.40;;;17.70;93.70;;;18.09;61.03;94594.00;5085806;28;20690;-53
2022/06/21 03:15:50;;;;;;;7.80;3.60;;;17.70;93.50;;;18.10;61.34;94595.66;5084214;28;20841;-53
2022/06/21 03:18:20;;;;;;;7.80;3.80;;;17.60;93.50;;;18.10;61.56;94580.50;5067121;28;20438;-53
2022/06/21 03:20:49;;;;;;;6.63;5.93;;;17.60;93.40;;;18.09;61.27;94576.22;5083207;28;20585;-53
2022/06/21 03:23:17;;;;;;;6.60;4.20;;;17.70;93.50;;;18.11;61.06;94584.00;5089041;28;20457;-54
2022/06/21 03:25:47;;;;;;;3.40;3.20;;;17.70;93.50;;;18.11;60.83;94581.34;5078104;28;20477;-55
2022/06/21 03:28:27;;;;;;;5.30;4.07;;;17.70;93.40;;;18.12;61.01;94577.66;5089362;28;20438;-55
2022/06/21 03:31:04;;;;;;;6.73;3.73;;;17.70;93.50;;;18.13;60.97;94579.31;5085014;28;20493;-54
2022/06/21 03:33:32;;;;;;;14.97;3.67;;;17.70;93.50;;;18.13;61.23;94587.28;5076723;28;20445;-54
2022/06/21 03:36:01;;;;;;;8.67;4.20;;;17.70;93.40;;;18.14;60.78;94585.44;5082631;28;20496;-55
2022/06/21 03:38:28;;;;;;;6.37;3.37;;;17.70;93.40;;;18.16;61.18;94584.25;5086564;28;21295;-53
2022/06/21 03:43:44;;;;;;;5.50;4.80;;;17.70;93.40;;;18.20;60.73;94596.16;5081877;28;20453;-55
2022/06/21 03:46:14;;;;;;;6.43;3.73;;;17.80;93.50;;;18.22;61.27;94603.97;5086728;28;20534;-56
2022/06/21 03:48:46;;;;;;;8.40;4.63;;;17.80;93.70;;;18.23;61.28;94598.44;5086476;28;20449;-57
2022/06/21 03:51:17;;;;;;;13.13;3.90;;;17.80;93.70;;;18.25;61.40;94598.25;5080842;28;20516;-56
2022/06/21 03:53:46;;;;;;;4.70;4.17;;;17.80;93.70;;;18.26;61.08;94605.19;5085695;28;20442;-60
2022/06/21 03:56:20;;;;;;;5.03;4.60;;;17.80;93.60;;;18.30;60.94;94600.31;5087591;28;20501;-55
2022/06/21 03:58:52;;;;;;;4.33;3.90;;;17.90;93.60;;;18.32;61.04;94603.59;5079743;28;20442;-55
2022/06/21 04:01:24;;;;;;;6.10;4.33;;;17.90;93.70;;;18.36;61.11;94610.19;5082275;28;20494;-55
2022/06/21 04:03:57;;;;;;;5.20;4.70;;;17.90;93.80;;;18.38;61.17;94598.31;5082993;28;20449;-54
2022/06/21 04:06:29;;;;;;;5.83;4.10;;;18.00;94.00;;;18.37;61.46;94593.19;5082922;28;20865;-55
2022/06/21 04:09:01;;;;;;;13.73;4.20;;;17.90;93.60;;;18.37;61.06;94593.19;5085369;28;20623;-54
2022/06/21 04:11:34;;;;;;;8.17;4.50;;;18.00;93.80;;;18.36;61.20;94583.56;5082841;28;20470;-55
2022/06/21 04:14:07;;;;;;;6.50;5.03;;;18.00;93.60;;;18.36;60.84;94591.56;5074482;28;20922;-55
2022/06/21 04:16:38;;;;;;;10.10;4.70;;;18.00;93.60;;;18.35;60.82;94592.56;5079197;28;20462;-53
2022/06/21 04:19:08;;;;;;;11.13;5.63;;;17.90;93.40;;;18.33;61.03;94589.28;5079774;28;20442;-56
2022/06/21 04:21:43;;;;;;;10.93;6.73;;;17.90;93.60;;;18.32;61.37;94587.63;5085731;28;20605;-54
2022/06/21 04:24:16;;;;;;;13.70;6.60;;;17.90;93.60;;;18.31;61.53;94591.31;5081733;28;20454;-55
2022/06/21 04:26:46;;;;;;;9.37;7.07;;;17.90;93.70;;;18.32;61.37;94587.63;5084270;28;20462;-57
2022/06/21 04:29:18;;;;;;;11.43;7.23;;;17.90;93.70;;;18.32;61.34;94587.63;5081512;28;20434;-54
2022/06/21 04:31:48;;;;;;;16.70;6.13;;;17.90;93.90;;;18.32;61.50;94583.13;5085629;28;20474;-56
2022/06/21 04:34:19;;;;;;;7.93;6.30;;;17.90;93.80;;;18.33;61.33;94578.63;5084278;28;20574;-55
2022/06/21 04:36:51;;;;;;;7.37;5.70;;;17.90;93.90;;;18.34;61.27;94574.94;5073340;28;20461;-54
2022/06/21 04:39:23;;;;;;;5.57;5.07;;;17.90;93.90;;;18.37;61.74;94574.53;5070163;28;20473;-56
2022/06/21 04:41:52;;;;;;;6.50;4.90;;;18.00;94.20;;;18.45;61.34;94580.56;5069813;28;20718;-55
2022/06/21 04:44:22;;;;;;;10.63;5.03;;;18.00;94.20;;;18.51;61.20;94581.59;5070622;28;20483;-54
2022/06/21 04:46:53;;;;;;;7.03;4.90;;;18.10;94.10;;;18.60;61.72;94584.94;5073236;28;20817;-53
2022/06/21 04:49:23;;;;;;;6.90;5.20;;;18.10;94.30;;;18.65;61.61;94593.13;5070546;28;20446;-55
2022/06/21 04:51:54;;;;;;;12.17;5.83;;;18.20;94.20;;;18.70;61.34;94589.88;5085778;28;20458;-54
2022/06/21 04:54:25;;;;;;;6.03;5.53;;;18.20;94.30;;;18.75;61.48;94598.94;5083479;28;20449;-55
2022/06/21 04:56:58;;;;;;;7.87;5.27;;;18.30;94.40;;;18.81;61.94;94600.00;5079386;28;20612;-54
2022/06/21 04:59:28;;;;;;;6.33;5.30;;;18.40;94.40;;;18.88;61.72;94608.88;5083889;28;20442;-54
2022/06/21 05:01:55;;;;;;;5.90;5.40;;;18.40;94.50;;;18.94;61.89;94608.06;5082318;28;20493;-57
2022/06/21 05:04:25;;;;;;;10.90;5.90;;;18.50;94.50;;;18.98;61.62;94604.00;5083651;28;20900;-55
2022/06/21 05:06:53;;;;;;;11.17;5.73;;;18.50;94.10;;;19.02;61.45;94620.41;5085175;28;20662;-55
2022/06/21 05:09:22;;;;;;;10.97;6.30;;;18.60;94.30;;;19.04;61.36;94623.72;5084380;28;20885;-54
2022/06/21 05:11:55;;;;;;;6.30;5.70;;;18.60;94.20;;;19.06;61.42;94623.53;5086378;28;20446;-55
2022/06/21 05:14:25;;;;;;;7.47;6.00;;;18.60;93.90;;;19.12;61.56;94625.41;5081181;28;20921;-56
2022/06/21 05:16:52;;;;;;;8.57;4.80;;;18.70;94.10;;;19.25;61.22;94622.75;5068741;28;20451;-56
2022/06/21 05:19:21;;;;;;;13.30;5.57;;;18.70;94.10;;;19.39;60.82;94625.50;5081660;28;20446;-55
2022/06/21 05:21:51;;;;;;;10.97;6.10;;;18.90;94.20;;;19.55;60.46;94619.81;5083848;28;20493;-57
2022/06/21 05:24:19;;;;;;;5.87;5.20;;;19.00;93.90;;;19.75;60.56;94619.00;5077517;28;20451;-55
2022/06/21 05:26:49;;;;;;;10.77;6.00;;;19.20;93.80;;;19.95;59.98;94619.06;5082944;28;21080;-55
2022/06/21 05:29:20;;;;;;;15.30;6.30;;;19.40;93.60;;;20.13;59.56;94619.28;5073631;28;20450;-55
2022/06/21 05:31:49;;;;;;;12.17;6.60;;;19.50;93.60;;;20.35;59.35;94619.88;5083087;28;20474;-54
2022/06/21 05:34:18;;;;;;;5.60;5.07;;;19.70;93.20;;;20.57;58.82;94612.47;5083382;28;20450;-56
2022/06/21 05:36:56;;;;;;;21.77;6.87;;;20.00;93.00;;;20.79;58.84;94609.59;5081937;28;20835;-53
2022/06/21 05:39:30;;;;;;;11.47;6.63;;;20.20;93.00;;;21.02;58.50;94613.59;5078673;28;20478;-55
2022/06/21 05:41:59;;;;;;;12.30;6.30;;;20.40;92.70;;;21.25;57.94;94613.91;5083022;28;20493;-55
2022/06/21 05:44:31;;;;;;;6.80;6.13;;;20.60;92.30;;;21.49;57.65;94611.59;5084847;28;20457;-55
2022/06/21 05:47:01;;;;;;;9.33;6.03;;;20.80;91.90;;;21.71;57.55;94612.09;5077974;28;20445;-54
2022/06/21 05:49:33;;;;;;;22.17;6.63;;;21.10;91.80;;;21.93;56.83;94604.50;5077386;28;20455;-55
2022/06/21 05:52:02;;;;;;;6.83;6.23;;;21.30;91.70;;;22.11;56.35;94595.72;5083969;28;20442;-56
2022/06/21 05:54:36;;;;;;;16.93;6.40;;;21.40;91.10;;;22.30;55.63;94599.31;5082085;28;20457;-55
2022/06/21 05:57:04;;;;;;;29.17;7.50;;;21.70;91.00;;;22.51;55.09;94595.41;5083445;28;20442;-55
2022/06/21 05:59:31;;;;;;;7.50;6.70;;;21.90;90.20;;;22.71;55.16;94610.47;5076946;28;20451;-55
2022/06/21 06:02:02;;;;;;;6.77;5.30;;;22.00;89.90;;;22.89;54.46;94597.06;5080853;28;20567;-57
2022/06/21 06:04:32;;;;;;;6.83;6.13;;;22.20;88.60;;;23.09;53.95;94604.13;5080130;28;20917;-56
2022/06/21 06:07:00;;;;;;;11.83;5.83;;;22.40;88.20;;;23.25;53.47;94606.22;5084421;28;20788;-57
2022/06/21 06:09:29;;;;;;;14.13;5.90;;;22.60;88.20;;;23.44;53.46;94608.88;5075980;28;20450;-56
2022/06/21 06:12:00;;;;;;;12.13;6.67;;;22.80;88.10;;;23.66;53.25;94608.38;5073854;28;20553;-54
2022/06/21 06:14:39;;;;;;;10.03;5.30;;;22.90;87.50;;;23.90;52.95;94610.09;5083206;28;20438;-55
2022/06/21 06:17:13;;;;;;;10.93;5.30;;;23.20;86.50;;;24.13;52.71;94603.16;5074995;28;20526;-55
2022/06/21 06:19:44;;;;;;;6.57;5.37;;;23.40;85.90;;;24.37;51.78;94611.25;5073685;28;20445;-55
2022/06/21 06:22:20;;;;;;;11.90;5.87;;;23.60;85.20;;;24.59;51.33;94616.91;5076954;28;21035;-55
2022/06/21 06:24:52;;;;;;;15.13;4.73;;;23.90;84.60;;;24.80;50.76;94608.25;5075552;28;20478;-54
2022/06/21 06:27:36;;;;;;;9.70;5.43;;;24.10;83.30;;;25.02;50.54;94619.22;5078210;28;20446;-55
2022/06/21 06:30:06;;;;;;;20.83;6.30;;;24.30;82.30;;;25.20;50.25;94615.53;5073695;28;21014;-54
2022/06/21 06:32:37;;;;;;;9.70;4.97;;;24.50;82.20;;;25.39;50.65;94618.94;5079485;28;20454;-54
2022/06/21 06:35:06;;;;;;;6.10;5.33;;;24.70;81.80;;;25.58;49.97;94621.47;5072121;28;20570;-55
2022/06/21 06:37:36;;;;;;;7.53;4.43;;;24.90;81.10;;;25.75;50.01;94619.63;5081848;28;20454;-55
2022/06/21 06:40:06;;;;;;;8.13;4.50;;;25.00;80.20;;;25.93;48.33;94617.78;5071524;28;20468;-53
2022/06/21 06:42:40;;;;;;;11.10;5.33;;;25.20;77.80;;;26.03;49.10;94615.31;5083269;28;20588;-56
2022/06/21 06:45:14;;;;;;;6.00;5.00;;;25.30;78.70;;;26.14;49.01;94610.09;5076700;28;20462;-56
2022/06/21 06:47:45;;;;;;;5.30;4.93;;;25.40;78.10;;;26.26;49.09;94606.25;5075657;28;20449;-56
2022/06/21 06:50:16;;;;;;;15.23;6.80;;;25.50;77.90;;;26.42;48.53;94604.63;5082429;28;20807;-54
2022/06/21 06:52:45;;;;;;;5.80;5.20;;;25.60;77.50;;;26.59;48.26;94610.00;5075504;28;20515;-55
2022/06/21 06:55:16;;;;;;;5.43;4.20;;;25.80;77.30;;;26.77;48.23;94608.97;5083818;28;20480;-53
2022/06/21 06:57:47;;;;;;;22.30;6.27;;;26.00;76.60;;;26.99;48.24;94605.50;5077147;28;20535;-57
2022/06/21 07:00:17;;;;;;;9.03;5.37;;;26.20;76.40;;;27.16;47.93;94598.16;5086022;28;20896;-57
2022/06/21 07:02:47;;;;;;;28.50;7.63;;;26.40;76.00;;;27.31;47.81;94592.16;5080632;28;20856;-53
2022/06/21 07:05:16;;;;;;;12.67;5.60;;;26.50;75.60;;;27.45;47.94;94591.75;5079540;28;20492;-55
2022/06/21 07:07:49;;;;;;;6.90;4.50;;;26.70;75.50;;;27.65;47.81;94591.19;5080217;28;21188;-57
2022/06/21 07:10:19;;;;;;;12.57;5.50;;;26.80;75.00;;;27.84;47.59;94586.22;5074242;28;20542;-55
2022/06/21 07:12:48;;;;;;;5.53;5.00;;;27.00;74.80;;;28.00;47.35;94589.94;5074655;28;20452;-53
2022/06/21 07:15:16;;;;;;;14.77;5.10;;;27.20;74.30;;;28.15;47.55;94586.53;5075967;28;20509;-56
2022/06/21 07:17:47;;;;;;;10.07;5.57;;;27.30;73.80;;;28.33;47.64;94582.66;5079296;28;20445;-56
2022/06/21 07:20:16;;;;;;;10.90;5.97;;;27.60;73.80;;;28.53;46.89;94582.00;5079841;28;20672;-56
2022/06/21 07:22:43;;;;;;;10.80;5.27;;;27.70;73.10;;;28.71;46.94;94583.50;5083993;28;20808;-54
2022/06/21 07:25:19;;;;;;;11.70;4.50;;;27.90;73.10;;;28.94;47.21;94590.41;5070400;28;20478;-55
2022/06/21 07:27:50;;;;;;;16.17;4.30;;;28.10;73.10;;;29.16;46.56;94587.53;5079670;28;20446;-56
2022/06/21 07:30:18;;;;;;;9.13;4.57;;;28.30;72.40;;;29.34;45.97;94597.13;5075005;28;20465;-56
2022/06/21 07:32:48;;;;;;;9.90;4.90;;;28.50;71.40;;;29.55;45.62;94602.63;5080946;28;20832;-57
2022/06/21 07:35:19;;;;;;;11.00;3.90;;;28.70;70.90;;;29.73;45.96;94593.19;5079568;28;20958;-55
2022/06/21 07:37:49;;;;;;;7.40;3.83;;;28.90;70.30;;;29.96;44.40;94586.50;5071938;28;20544;-54
2022/06/21 07:40:21;;;;;;;5.87;4.10;;;29.10;68.50;;;30.17;44.58;94595.47;5070612;28;20715;-56
2022/06/21 07:42:54;;;;;;;11.13;4.57;;;29.30;68.10;;;30.37;44.81;94600.09;5084065;28;20573;-54
2022/06/21 07:45:26;;;;;;;8.40;3.50;;;29.50;67.80;;;30.58;44.15;94606.34;5083443;28;20461;-53
2022/06/21 07:47:58;;;;;;;3.60;3.30;;;29.70;66.50;;;30.81;43.54;94609.59;5083395;28;20576;-57
2022/06/21 07:50:32;;;;;;;17.43;5.90;;;29.90;64.50;;;30.97;42.09;94605.81;5084224;28;20231;-56
2022/06/21 07:53:03;;;;;;;14.50;4.43;;;30.10;62.50;;;31.12;41.63;94609.56;5085071;28;20572;-55
2022/06/21 07:55:33;;;;;;;11.37;3.40;;;30.30;61.50;;;31.25;41.21;94611.72;5082387;28;20294;-55
2022/06/21 07:58:05;;;;;;;7.60;3.20;;;30.40;60.90;;;31.33;41.18;94608.44;5082445;28;20188;-57
2022/06/21 08:08:48;;;;;;;12.83;4.70;;;31.00;58.10;;;32.00;40.50;94633.41;5081410;28;20199;-55
2022/06/21 08:11:19;;;;;;;8.05;4.43;;;31.20;58.30;;;32.14;40.27;94638.28;5076326;28;20262;-56
2022/06/21 08:13:47;;;;;;;9.13;5.20;;;31.30;57.70;;;32.24;40.32;94645.56;5076365;28;20195;-55
2022/06/21 08:16:17;;;;;;;14.90;5.07;;;31.40;57.30;;;32.37;40.03;94635.97;5079587;28;20220;-56
2022/06/21 08:18:47;;;;;;;40.17;6.50;;;31.50;57.20;;;32.49;39.07;94644.59;5078237;28;20196;-56
2022/06/21 08:21:17;;;;;;;16.05;4.63;;;31.70;56.10;;;32.63;39.36;94647.47;5077744;28;20242;-55
2022/06/21 08:23:47;;;;;;;14.52;5.20;;;31.80;56.50;;;32.79;38.99;94638.09;5074940;28;20663;-57
2022/06/21 08:26:17;;;;;;;8.70;5.07;;;31.90;55.90;;;32.93;39.14;94640.16;5084572;28;20223;-56
2022/06/21 08:28:50;;;;;;;5.07;4.57;;;32.10;55.40;;;33.07;38.67;94632.94;5082891;28;20196;-57
2022/06/21 08:31:20;;;;;;;6.30;4.60;;;32.20;55.10;;;33.23;38.97;94641.78;5073630;28;20687;-56
2022/06/21 08:33:52;;;;;;;7.80;5.20;;;32.40;55.10;;;33.42;38.81;94644.59;5078349;28;20207;-54
2022/06/21 08:36:22;;;;;;;9.13;6.20;;;32.60;54.80;;;33.62;38.41;94632.63;5076177;28;20223;-57
2022/06/21 08:38:52;;;;;;;5.47;4.85;;;32.80;54.50;;;33.79;37.99;94642.25;5072637;28;20696;-54
2022/06/21 08:41:55;;;;;;;10.55;5.35;;;32.90;53.80;;;33.96;37.48;94642.59;5074214;28;20243;-53
2022/06/21 08:48:39;;;;;;;7.10;5.72;;;33.30;52.50;;;34.12;36.08;94641.25;5064101;28;20211;-55
2022/06/21 08:51:53;;;;;;;9.88;5.88;;;33.30;52.10;;;34.02;37.77;94629.69;5071137;28;20219;-54
2022/06/21 08:54:34;;;;;;;12.75;6.65;;;33.30;52.80;;;34.00;37.40;94627.25;5009562;28;20671;-54
2022/06/21 08:57:06;;;;;;;12.88;6.28;;;33.30;52.30;;;33.91;37.50;94624.38;5078171;28;20632;-56
2022/06/21 08:59:40;;;;;;;14.18;5.50;;;33.20;52.30;;;33.89;37.68;94621.13;5079917;28;20200;-56
2022/06/21 09:02:15;;;;;;;9.15;5.80;;;33.10;52.50;;;33.90;38.00;94620.03;5083092;28;20225;-57
2022/06/21 09:04:48;;;;;;;14.90;6.38;;;33.10;52.70;;;33.94;37.68;94618.34;5078889;28;20317;-55
2022/06/21 09:07:33;;;;;;;23.45;7.07;;;33.20;52.50;;;33.90;37.69;94614.56;5084410;28;20672;-53
2022/06/21 09:10:14;;;;;;;10.88;5.85;;;33.10;52.30;;;33.87;38.18;94606.97;5080622;28;20246;-56
2022/06/21 09:12:49;;;;;;;24.63;7.38;;;33.10;52.70;;;33.87;37.98;94601.50;5079355;28;20672;-55
2022/06/21 09:15:33;;;;;;;13.60;6.35;;;33.10;52.70;;;33.84;37.77;94602.09;5079947;28;20238;-54
2022/06/21 09:18:12;;;;;;;17.30;6.35;;;33.10;52.70;;;33.86;37.47;94602.59;5074018;28;20667;-55
2022/06/21 09:20:45;;;;;;;22.25;7.80;;;33.10;52.20;;;33.86;37.86;94607.25;5079018;28;20219;-56
2022/06/21 09:23:22;;;;;;;16.40;7.15;;;33.10;52.30;;;33.83;37.24;94605.91;5075005;28;20693;-55
2022/06/21 09:25:55;;;;;;;16.23;9.05;;;33.10;52.20;;;33.82;37.49;94604.31;5076066;28;20485;-56
2022/06/21 09:28:29;;;;;;;19.30;9.32;;;33.10;52.40;;;33.85;38.15;94605.63;5077859;28;20318;-54
2022/06/21 09:31:00;;;;;;;12.68;8.23;;;33.10;52.70;;;33.85;37.88;94592.81;5082094;28;20224;-52
2022/06/21 09:33:36;;;;;;;15.18;8.27;;;33.10;52.50;;;33.82;37.61;94600.75;5085021;28;20672;-55
2022/06/21 09:36:22;;;;;;;9.98;7.72;;;33.10;52.30;;;33.81;37.92;94597.22;5076949;28;20665;-54
2022/06/21 09:38:56;;;;;;;11.98;6.45;;;33.10;52.70;;;33.81;38.53;94604.59;5083290;28;20207;-56
2022/06/21 09:41:29;;;;;;;12.93;7.40;;;33.10;52.70;;;33.83;37.94;94594.19;5071476;28;20257;-57
2022/06/21 09:44:05;;;;;;;21.17;6.55;;;33.00;52.70;;;33.94;38.36;94601.97;5075568;28;20513;-55
2022/06/21 09:46:40;;;;;;;10.60;6.75;;;33.10;52.70;;;33.98;38.02;94594.00;5078562;28;20372;-55
2022/06/21 09:49:24;;;;;;;14.20;7.13;;;33.20;52.00;;;33.93;37.98;94594.88;5081535;28;20582;-53
2022/06/21 09:51:56;;;;;;;11.25;6.32;;;33.20;52.40;;;33.94;37.88;94599.22;5070367;28;20243;-54
2022/06/21 09:54:31;;;;;;;10.35;6.50;;;33.20;52.30;;;33.93;38.37;94594.88;5083034;28;20199;-57
2022/06/21 09:57:13;;;;;;;6.78;6.15;;;33.20;52.50;;;33.92;38.28;94593.25;5074364;28;20667;-55
2022/06/21 09:59:45;;;;;;;12.65;6.88;;;33.20;52.80;;;33.97;38.43;94583.38;5081063;28;20245;-54
2022/06/21 10:02:19;;;;;;;19.17;6.18;;;33.20;52.80;;;33.97;38.01;94586.91;5072994;28;20483;-56
2022/06/21 10:04:55;;;;;;;10.63;6.63;;;33.20;52.70;;;33.89;37.79;94584.84;5075130;28;20268;-53
2022/06/21 10:07:30;;;;;;;9.18;6.30;;;33.10;52.10;;;33.81;38.73;94578.13;5081415;28;20214;-55
2022/06/21 10:10:11;;;;;;;14.32;6.78;;;33.10;52.70;;;33.82;38.76;94587.13;5076008;28;20219;-58
2022/06/21 10:12:45;;;;;;;10.25;5.45;;;33.10;52.80;;;33.86;38.86;94582.69;5073480;28;20206;-56
2022/06/21 10:15:38;;;;;;;7.53;6.03;;;33.10;52.70;;;33.95;38.90;94591.84;5072517;28;20216;-55
2022/06/21 10:18:42;;;;;;;7.72;6.20;;;33.20;52.80;;;34.09;38.17;94575.53;5074254;28;20196;-57
2022/06/21 10:21:27;;;;;;;6.65;6.00;;;33.30;52.90;;;34.12;37.89;94580.41;5055798;28;20219;-56
2022/06/21 10:24:46;;;;;;;12.07;6.13;;;33.30;52.60;;;34.07;37.87;94573.09;5078692;28;20246;-58
2022/06/21 10:27:31;;;;;;;9.25;5.28;;;33.30;51.80;;;34.00;37.09;94583.56;5001037;28;20292;-56
2022/06/21 10:30:20;;;;;;;7.57;6.60;;;33.30;52.00;;;34.01;37.69;94573.50;5069190;28;20298;-55
2022/06/21 10:33:01;;;;;;;14.02;5.95;;;33.20;52.30;;;34.01;38.13;94582.47;5072087;28;20203;-55
2022/06/21 10:35:57;;;;;;;10.98;6.70;;;33.20;52.20;;;34.02;38.16;94588.75;5085577;28;20319;-53
2022/06/21 10:38:51;;;;;;;9.80;5.97;;;33.30;52.30;;;33.98;37.66;94574.88;5083882;28;20195;-55
2022/06/21 10:41:37;;;;;;;7.22;5.55;;;33.30;52.70;;;33.87;38.04;94592.53;5078981;28;20215;-55
2022/06/21 10:44:49;;;;;;;9.52;5.13;;;33.20;52.20;;;33.80;38.80;94589.34;5076386;28;20212;-56
2022/06/21 10:47:37;;;;;;;15.43;6.20;;;33.10;52.70;;;33.76;37.71;94583.66;5008911;28;20210;-55
2022/06/21 10:50:12;;;;;;;13.48;6.57;;;33.10;51.90;;;33.62;38.18;94577.25;5077822;28;20216;-54
2022/06/21 10:53:22;;;;;;;7.15;5.35;;;32.90;52.00;;;33.46;38.91;94588.34;5084079;28;20206;-55
2022/06/21 10:59:06;;;;;;;10.65;6.60;;;32.70;53.20;;;33.31;39.28;94583.09;5073665;28;20796;-53